Time;durP1;ratioP1;P1;durP2;ratioP2;P2;SDS_P1;SDS_P2;PMS_P1;PMS_P2;Temp;Humidity;BMP_temperature;BMP_pressure;BME280_temperature;BME280_humidity;BME280_pressure;Samples;Min_cycle;Max_cycle;Signal;HPM_P1;HPM_P2
2021/01/27 16:23:50;;;;;;;7.70;6.63;;;5.30;99.90;;;;;;5085774;27;126431;-79
2021/01/27 16:26:16;;;;;;;6.60;5.80;;;5.70;99.90;;;;;;5059887;28;83395;-78
2021/01/27 16:28:42;;;;;;;7.07;6.07;;;6.00;99.90;;;;;;5055160;28;20616;-78
2021/01/27 16:31:09;;;;;;;6.20;5.60;;;6.20;99.90;;;;;;5064610;28;20594;-81
2021/01/27 16:33:36;;;;;;;5.03;4.20;;;6.50;99.90;;;;;;5046156;28;20613;-80
2021/01/27 16:36:03;;;;;;;6.05;5.15;;;6.60;99.90;;;;;;5041247;28;20186;-78
2021/01/27 16:38:29;;;;;;;5.60;4.80;;;6.80;99.90;;;;;;5036510;28;20188;-79
2021/01/27 16:40:55;;;;;;;4.55;3.90;;;6.90;99.90;;;;;;5037057;28;20177;-79
2021/01/27 16:43:21;;;;;;;4.72;4.10;;;7.10;99.90;;;;;;5042721;28;20287;-78
2021/01/27 16:45:47;;;;;;;5.60;3.75;;;7.20;99.90;;;;;;5045458;28;20165;-78
2021/01/27 16:48:14;;;;;;;4.38;3.97;;;7.30;99.90;;;;;;5047427;28;20193;-78
2021/01/27 16:50:40;;;;;;;5.55;5.05;;;7.40;99.90;;;;;;5039842;28;20261;-79
2021/01/27 16:53:06;;;;;;;4.47;4.07;;;7.40;99.90;;;;;;5038645;28;20971;-78
2021/01/27 16:55:36;;;;;;;5.93;5.43;;;7.50;99.90;;;;;;5046821;28;20173;-78
2021/01/27 16:58:06;;;;;;;4.32;3.92;;;7.60;99.90;;;;;;5044526;28;20186;-78
2021/01/27 17:00:32;;;;;;;5.43;4.68;;;7.60;99.90;;;;;;5034295;28;20184;-79
2021/01/27 17:02:59;;;;;;;4.90;4.50;;;7.70;99.90;;;;;;5036703;28;20532;-78
2021/01/27 17:05:31;;;;;;;5.70;5.20;;;7.70;99.90;;;;;;5035819;28;20166;-78
2021/01/27 17:07:58;;;;;;;5.10;4.63;;;7.80;99.90;;;;;;5037416;28;20190;-78
2021/01/27 17:10:25;;;;;;;7.97;6.65;;;7.80;99.90;;;;;;5039540;28;20683;-78
2021/01/27 17:12:51;;;;;;;7.35;5.85;;;7.90;99.90;;;;;;5041717;28;20181;-78
2021/01/27 17:15:18;;;;;;;11.60;9.97;;;7.90;99.90;;;;;;5037115;28;20177;-78
2021/01/27 17:17:44;;;;;;;9.45;8.40;;;7.90;99.90;;;;;;5039218;28;20647;-78
2021/01/27 17:20:10;;;;;;;8.60;7.80;;;7.90;99.90;;;;;;5038104;28;20170;-78
2021/01/27 17:22:37;;;;;;;8.60;7.50;;;8.00;99.90;;;;;;5038771;28;20250;-78
2021/01/27 17:25:06;;;;;;;8.10;7.35;;;8.00;99.90;;;;;;5035818;28;20202;-78
2021/01/27 17:27:32;;;;;;;7.47;6.78;;;8.00;99.90;;;;;;5035533;28;20173;-78
2021/01/27 17:29:58;;;;;;;9.63;6.90;;;8.00;99.90;;;;;;5037655;28;20205;-78
2021/01/27 17:32:24;;;;;;;8.10;7.30;;;8.00;99.90;;;;;;5038824;28;20948;-78
2021/01/27 17:34:49;;;;;;;7.85;6.65;;;8.10;99.90;;;;;;5027372;28;20174;-78
2021/01/27 17:37:15;;;;;;;7.23;6.63;;;8.10;99.90;;;;;;5029205;28;20248;-78
2021/01/27 17:39:41;;;;;;;7.88;6.95;;;8.10;99.90;;;;;;5022227;28;20588;-78
2021/01/27 17:42:07;;;;;;;7.20;6.33;;;8.10;99.90;;;;;;5024609;28;20193;-78
2021/01/27 17:44:34;;;;;;;10.03;7.80;;;8.20;99.90;;;;;;5026161;28;20200;-78
2021/01/27 17:47:00;;;;;;;8.55;7.75;;;8.20;99.90;;;;;;5031437;28;20700;-79
2021/01/27 17:49:26;;;;;;;9.10;7.10;;;8.20;99.90;;;;;;5025696;28;20210;-79
2021/01/27 17:51:52;;;;;;;10.07;6.27;;;8.20;99.90;;;;;;5024026;28;21177;-78
2021/01/27 17:54:18;;;;;;;8.57;7.13;;;8.20;99.90;;;;;;5027095;28;20177;-79
2021/01/27 17:56:46;;;;;;;10.05;6.70;;;8.20;99.90;;;;;;5025210;28;20178;-79
2021/01/27 17:59:12;;;;;;;8.75;7.85;;;8.20;99.90;;;;;;5024796;28;20229;-79
2021/01/27 18:01:38;;;;;;;7.38;6.65;;;8.20;99.90;;;;;;5025285;28;20177;-78
2021/01/27 18:04:04;;;;;;;6.27;5.73;;;8.30;99.90;;;;;;5021492;28;20642;-79
2021/01/27 18:06:33;;;;;;;9.48;6.55;;;8.20;99.90;;;;;;5021925;28;20592;-79
2021/01/27 18:08:59;;;;;;;7.43;6.63;;;8.20;99.90;;;;;;5020966;28;20198;-78
2021/01/27 18:11:25;;;;;;;6.80;6.10;;;8.30;99.90;;;;;;5021831;28;20611;-79
2021/01/27 18:13:51;;;;;;;7.63;6.93;;;8.20;99.90;;;;;;5022904;28;20529;-78
2021/01/27 18:16:17;;;;;;;7.93;7.10;;;8.30;99.90;;;;;;5024871;28;20513;-79
2021/01/27 18:18:43;;;;;;;8.95;7.95;;;8.30;99.90;;;;;;5027854;28;20229;-78
2021/01/27 18:21:10;;;;;;;8.80;6.60;;;8.30;99.90;;;;;;5027529;28;20162;-78
2021/01/27 18:23:36;;;;;;;9.77;8.70;;;8.30;99.90;;;;;;5021290;28;20221;-78
2021/01/27 18:26:03;;;;;;;12.68;8.90;;;8.30;99.90;;;;;;5062463;28;20177;-79
2021/01/27 18:28:31;;;;;;;10.45;9.38;;;8.30;99.90;;;;;;5023245;28;20600;-78
2021/01/27 18:30:59;;;;;;;13.63;10.90;;;8.30;99.90;;;;;;5022347;28;20174;-78
2021/01/27 18:33:25;;;;;;;14.10;11.68;;;8.30;99.90;;;;;;5021311;28;20548;-78
2021/01/27 18:35:52;;;;;;;15.75;12.77;;;8.30;99.90;;;;;;5029460;28;20260;-79
2021/01/27 18:38:20;;;;;;;13.40;10.57;;;8.30;99.90;;;;;;5021244;28;20202;-77
2021/01/27 18:40:46;;;;;;;11.90;10.48;;;8.30;99.90;;;;;;5020662;28;20198;-79
2021/01/27 18:43:15;;;;;;;10.57;9.00;;;8.30;99.90;;;;;;5037723;28;20228;-77
2021/01/27 18:45:43;;;;;;;9.63;8.68;;;8.30;99.90;;;;;;5037923;28;20165;-77
2021/01/27 18:48:12;;;;;;;11.10;8.48;;;8.30;99.90;;;;;;5040382;28;20193;-78
2021/01/27 18:50:38;;;;;;;10.95;9.73;;;8.30;99.90;;;;;;5042251;28;20184;-80
2021/01/27 18:53:06;;;;;;;9.87;8.87;;;8.30;99.90;;;;;;5043992;28;20528;-77
2021/01/27 18:55:32;;;;;;;12.13;10.45;;;8.30;99.90;;;;;;5043088;28;20583;-79
2021/01/27 18:57:57;;;;;;;12.00;10.57;;;8.40;99.90;;;;;;5041439;28;20200;-78
2021/01/27 19:00:26;;;;;;;13.33;10.70;;;8.40;99.90;;;;;;5038074;28;20642;-78
2021/01/27 19:02:52;;;;;;;10.10;8.60;;;8.40;99.90;;;;;;5035315;28;20197;-78
2021/01/27 19:05:19;;;;;;;8.93;7.77;;;8.40;99.90;;;;;;5043291;28;20170;-76
2021/01/27 19:07:45;;;;;;;9.77;8.75;;;8.40;99.90;;;;;;5048511;28;20618;-79
2021/01/27 19:10:16;;;;;;;9.17;7.80;;;8.40;99.90;;;;;;5035139;28;20653;-80
2021/01/27 19:12:45;;;;;;;9.60;8.70;;;8.40;99.90;;;;;;5043995;28;20671;-81
2021/01/27 19:15:13;;;;;;;10.20;8.45;;;8.40;99.90;;;;;;5039908;28;20200;-78
2021/01/27 19:17:40;;;;;;;12.30;9.88;;;8.40;99.90;;;;;;5044740;28;20276;-79
2021/01/27 19:20:07;;;;;;;9.18;8.27;;;8.30;99.90;;;;;;5039808;28;20645;-79
2021/01/27 19:22:33;;;;;;;9.50;8.50;;;8.30;99.90;;;;;;5039262;28;20671;-82
2021/01/27 19:24:59;;;;;;;9.70;8.37;;;8.30;99.90;;;;;;5040721;28;20181;-80
2021/01/27 19:27:25;;;;;;;11.20;8.73;;;8.20;99.90;;;;;;5040103;28;21200;-80
2021/01/27 19:29:51;;;;;;;11.30;8.73;;;8.20;99.90;;;;;;5037845;28;20599;-82
2021/01/27 19:32:17;;;;;;;9.00;7.20;;;8.20;99.90;;;;;;5043765;28;20177;-81
2021/01/27 19:34:43;;;;;;;10.33;8.13;;;8.10;99.90;;;;;;5041716;28;20243;-81
2021/01/27 19:37:09;;;;;;;10.90;8.93;;;8.10;99.90;;;;;;5040056;28;20588;-80
2021/01/27 19:39:34;;;;;;;12.47;9.40;;;8.10;99.90;;;;;;5021738;28;20189;-80
2021/01/27 19:42:00;;;;;;;9.70;8.77;;;8.10;99.90;;;;;;5050250;28;20647;-80
2021/01/27 19:44:26;;;;;;;12.30;8.70;;;8.10;99.90;;;;;;5030367;28;20650;-79
2021/01/27 19:46:57;;;;;;;10.87;9.47;;;8.10;99.90;;;;;;5041336;28;20603;-82
2021/01/27 19:49:25;;;;;;;10.13;8.65;;;8.10;99.90;;;;;;5066714;28;20621;-81
2021/01/27 19:51:51;;;;;;;9.10;7.87;;;8.00;99.90;;;;;;5023800;28;20700;-82
2021/01/27 19:54:17;;;;;;;10.38;9.38;;;8.10;99.90;;;;;;5039781;28;20208;-84
2021/01/27 19:56:43;;;;;;;11.98;9.38;;;8.00;99.90;;;;;;5031219;28;20205;-83
2021/01/27 19:59:09;;;;;;;15.23;12.73;;;8.00;99.90;;;;;;5030169;28;20200;-83
2021/01/27 20:01:38;;;;;;;12.20;10.40;;;8.00;99.90;;;;;;5021849;28;20180;-83
2021/01/27 20:04:04;;;;;;;13.83;9.83;;;8.00;99.90;;;;;;5043115;28;20169;-81
2021/01/27 20:06:30;;;;;;;10.65;8.75;;;8.00;99.90;;;;;;5042832;28;20169;-83
2021/01/27 20:08:56;;;;;;;13.02;9.82;;;8.00;99.90;;;;;;5033077;28;20196;-83
2021/01/27 20:11:22;;;;;;;12.98;10.30;;;8.00;99.90;;;;;;5040514;28;20813;-83
2021/01/27 20:13:48;;;;;;;12.03;9.77;;;8.00;99.90;;;;;;5046547;28;20258;-82
2021/01/27 20:16:14;;;;;;;12.57;8.67;;;8.00;99.90;;;;;;5035341;28;20692;-83
2021/01/27 20:18:49;;;;;;;13.63;10.35;;;8.00;99.90;;;;;;5025926;28;20626;-82
2021/01/27 20:21:16;;;;;;;11.27;9.43;;;8.00;99.90;;;;;;5042175;28;20173;-82
2021/01/27 20:23:48;;;;;;;12.13;8.93;;;8.00;99.90;;;;;;5009236;28;20699;-81
2021/01/27 20:26:14;;;;;;;9.70;8.70;;;8.10;99.90;;;;;;5042507;28;20247;-82
2021/01/27 20:28:44;;;;;;;11.63;9.85;;;8.10;99.90;;;;;;5041940;28;20205;-81
2021/01/27 20:31:10;;;;;;;13.77;10.02;;;8.10;99.90;;;;;;5035513;28;20211;-83
2021/01/27 20:33:44;;;;;;;12.25;10.93;;;8.10;99.90;;;;;;5033214;28;20269;-82
2021/01/27 20:36:10;;;;;;;13.07;10.30;;;8.20;99.90;;;;;;5028378;28;20536;-81
2021/01/27 20:38:37;;;;;;;13.45;11.10;;;8.20;99.90;;;;;;5042853;28;20275;-83
2021/01/27 20:41:06;;;;;;;17.50;13.02;;;8.20;99.90;;;;;;5042203;28;20238;-84
2021/01/27 20:43:32;;;;;;;17.85;11.00;;;8.20;99.90;;;;;;5042415;28;20276;-83
2021/01/27 20:45:58;;;;;;;12.50;10.17;;;8.30;99.90;;;;;;5037084;28;20690;-82
2021/01/27 20:48:25;;;;;;;12.40;11.00;;;8.30;99.90;;;;;;5030330;28;20608;-80
2021/01/27 20:50:52;;;;;;;14.95;12.60;;;8.30;99.90;;;;;;5040103;28;20252;-81
2021/01/27 20:53:22;;;;;;;11.32;10.10;;;8.30;99.90;;;;;;5036129;28;20174;-79
2021/01/27 20:55:51;;;;;;;15.85;10.60;;;8.30;99.90;;;;;;5040255;28;20521;-79
2021/01/27 20:58:19;;;;;;;14.07;10.02;;;8.40;99.90;;;;;;5042388;28;20676;-78
2021/01/27 21:00:45;;;;;;;12.07;9.63;;;8.40;99.90;;;;;;5042074;28;20208;-78
2021/01/27 21:03:15;;;;;;;13.50;8.90;;;8.40;99.90;;;;;;5046223;28;20251;-78
2021/01/27 21:05:41;;;;;;;11.93;9.75;;;8.40;99.90;;;;;;5046740;28;20169;-77
2021/01/27 21:08:08;;;;;;;11.67;10.37;;;8.50;99.90;;;;;;5032593;28;20185;-79
2021/01/27 21:10:36;;;;;;;11.45;9.65;;;8.40;99.90;;;;;;5037473;28;20577;-77
2021/01/27 21:13:03;;;;;;;11.65;9.48;;;8.50;99.90;;;;;;5045405;28;20611;-78
2021/01/27 21:15:32;;;;;;;14.05;9.85;;;8.50;99.90;;;;;;5038957;28;20673;-79
2021/01/27 21:17:59;;;;;;;12.68;10.05;;;8.50;99.90;;;;;;5033661;28;20205;-78
2021/01/27 21:20:27;;;;;;;13.13;9.80;;;8.50;99.90;;;;;;5045929;28;20183;-77
2021/01/27 21:22:53;;;;;;;14.30;10.57;;;8.50;99.90;;;;;;5043699;28;20240;-78
2021/01/27 21:25:22;;;;;;;12.25;9.65;;;8.50;99.90;;;;;;5008343;28;20179;-77
2021/01/27 21:27:52;;;;;;;11.45;9.05;;;8.50;99.90;;;;;;5042651;28;20217;-78
2021/01/27 21:30:20;;;;;;;10.07;8.80;;;8.60;99.90;;;;;;5045930;28;20169;-78
2021/01/27 21:32:47;;;;;;;11.27;10.07;;;8.60;99.90;;;;;;5048768;28;20184;-78
2021/01/27 21:35:13;;;;;;;10.90;9.30;;;8.60;99.90;;;;;;5046780;28;20176;-78
2021/01/27 21:37:40;;;;;;;13.55;9.50;;;8.60;99.90;;;;;;5053488;28;20618;-79
2021/01/27 21:40:11;;;;;;;13.85;10.60;;;8.70;99.90;;;;;;5033944;28;20359;-78
2021/01/27 21:42:38;;;;;;;10.70;9.60;;;8.70;99.90;;;;;;5041794;28;20197;-78
2021/01/27 21:45:07;;;;;;;13.32;9.20;;;8.70;99.90;;;;;;5041940;28;20606;-78
2021/01/27 21:47:34;;;;;;;11.23;10.05;;;8.70;99.90;;;;;;5039087;28;20173;-78
2021/01/27 21:50:00;;;;;;;13.85;10.27;;;8.70;99.90;;;;;;5042280;28;20515;-78
2021/01/27 21:52:29;;;;;;;11.90;9.00;;;8.70;99.90;;;;;;5045238;28;20192;-78
2021/01/27 21:54:55;;;;;;;12.48;9.20;;;8.80;99.90;;;;;;5043163;28;20226;-78
2021/01/27 21:57:20;;;;;;;14.10;10.00;;;8.80;99.90;;;;;;5041366;28;20657;-78
2021/01/27 21:59:47;;;;;;;11.20;8.53;;;8.80;99.90;;;;;;5041014;28;20185;-78
2021/01/27 22:02:15;;;;;;;10.17;8.03;;;8.80;99.90;;;;;;5044941;28;20623;-78
2021/01/27 22:04:41;;;;;;;11.52;9.20;;;8.80;99.90;;;;;;5044889;28;20571;-78
2021/01/27 22:07:07;;;;;;;13.67;9.27;;;8.70;99.90;;;;;;5045102;28;20176;-78
2021/01/27 22:09:32;;;;;;;12.00;9.00;;;8.80;99.90;;;;;;5038837;28;20276;-77
2021/01/27 22:11:58;;;;;;;11.43;8.07;;;8.80;99.90;;;;;;5048343;28;20177;-78
2021/01/27 22:14:25;;;;;;;12.07;9.50;;;8.80;99.90;;;;;;5041464;28;20685;-78
2021/01/27 22:16:50;;;;;;;12.32;8.77;;;8.80;99.90;;;;;;5041425;28;20264;-77
2021/01/27 22:19:16;;;;;;;15.80;9.47;;;8.80;99.90;;;;;;5042268;28;20312;-77
2021/01/27 22:21:45;;;;;;;14.50;10.23;;;8.80;99.90;;;;;;5034659;28;20235;-78
2021/01/27 22:24:11;;;;;;;9.18;7.93;;;8.80;99.90;;;;;;5039020;28;20205;-78
2021/01/27 22:26:37;;;;;;;14.80;9.80;;;8.80;99.90;;;;;;5041206;28;20166;-78
2021/01/27 22:29:03;;;;;;;13.30;9.20;;;8.80;99.90;;;;;;5043617;28;20196;-78
2021/01/27 22:31:29;;;;;;;13.52;7.93;;;8.80;99.90;;;;;;5044645;28;20599;-78
2021/01/27 22:33:55;;;;;;;15.23;9.70;;;8.70;99.90;;;;;;5042145;28;20169;-78
2021/01/27 22:36:21;;;;;;;13.67;10.00;;;8.70;99.90;;;;;;5041034;28;20583;-78
2021/01/27 22:38:48;;;;;;;16.47;10.30;;;8.70;99.90;;;;;;5040010;28;20209;-78
2021/01/27 22:41:14;;;;;;;12.10;9.85;;;8.70;99.90;;;;;;5043438;28;20287;-78
2021/01/27 22:43:39;;;;;;;13.57;7.83;;;8.60;99.90;;;;;;5042954;28;20219;-78
2021/01/27 22:46:05;;;;;;;9.50;8.53;;;8.60;99.90;;;;;;5037120;28;20663;-77
